sensor_id;sensor_type;location;lat;lon;timestamp;pressure;altitude;pressure_sealevel;temperature;humidity
38812;BME280;24553;51.640;-0.752;2023-01-20T00:01:13;100567.03;;;-0.42;100.00
38812;BME280;24553;51.640;-0.752;2023-01-20T00:03:40;100572.94;;;-0.40;100.00
38812;BME280;24553;51.640;-0.752;2023-01-20T00:06:06;100572.59;;;-0.24;100.00
38812;BME280;24553;51.640;-0.752;2023-01-20T00:08:32;100565.13;;;-0.29;100.00
38812;BME280;24553;51.640;-0.752;2023-01-20T00:10:57;100569.16;;;-0.47;100.00
38812;BME280;24553;51.640;-0.752;2023-01-20T00:13:23;100571.28;;;-0.75;100.00
38812;BME280;24553;51.640;-0.752;2023-01-20T00:15:48;100561.06;;;-0.89;100.00
38812;BME280;24553;51.640;-0.752;2023-01-20T00:18:14;100566.09;;;-1.10;100.00
38812;BME280;24553;51.640;-0.752;2023-01-20T00:20:40;100567.38;;;-1.16;100.00
38812;BME280;24553;51.640;-0.752;2023-01-20T00:23:05;100567.16;;;-1.01;100.00
38812;BME280;24553;51.640;-0.752;2023-01-20T00:25:34;100575.72;;;-0.88;100.00
38812;BME280;24553;51.640;-0.752;2023-01-20T00:28:00;100575.38;;;-0.83;100.00
38812;BME280;24553;51.640;-0.752;2023-01-20T00:30:25;100582.19;;;-0.58;100.00
38812;BME280;24553;51.640;-0.752;2023-01-20T00:32:50;100581.00;;;-0.43;100.00
38812;BME280;24553;51.640;-0.752;2023-01-20T00:35:16;100583.72;;;-0.45;100.00
38812;BME280;24553;51.640;-0.752;2023-01-20T00:37:41;100579.34;;;-0.33;100.00
38812;BME280;24553;51.640;-0.752;2023-01-20T00:40:08;100586.16;;;0.25;100.00
38812;BME280;24553;51.640;-0.752;2023-01-20T00:42:34;100582.94;;;0.76;100.00
38812;BME280;24553;51.640;-0.752;2023-01-20T00:44:59;100575.66;;;0.79;100.00
38812;BME280;24553;51.640;-0.752;2023-01-20T00:47:24;100569.53;;;1.01;100.00
38812;BME280;24553;51.640;-0.752;2023-01-20T00:49:50;100562.25;;;1.05;100.00
38812;BME280;24553;51.640;-0.752;2023-01-20T00:52:15;100560.44;;;1.26;100.00
38812;BME280;24553;51.640;-0.752;2023-01-20T00:54:43;100557.13;;;1.45;100.00
38812;BME280;24553;51.640;-0.752;2023-01-20T00:57:08;100563.50;;;1.52;100.00
38812;BME280;24553;51.640;-0.752;2023-01-20T00:59:33;100564.66;;;1.39;100.00
38812;BME280;24553;51.640;-0.752;2023-01-20T01:01:59;100564.03;;;1.25;100.00
38812;BME280;24553;51.640;-0.752;2023-01-20T01:04:24;100563.91;;;1.27;100.00
38812;BME280;24553;51.640;-0.752;2023-01-20T01:06:49;100578.09;;;0.92;100.00
38812;BME280;24553;51.640;-0.752;2023-01-20T01:09:15;100572.22;;;1.11;100.00
38812;BME280;24553;51.640;-0.752;2023-01-20T01:11:40;100566.75;;;1.24;100.00
38812;BME280;24553;51.640;-0.752;2023-01-20T01:14:06;100566.66;;;1.04;100.00
38812;BME280;24553;51.640;-0.752;2023-01-20T01:16:31;100572.13;;;1.22;100.00
38812;BME280;24553;51.640;-0.752;2023-01-20T01:18:56;100575.91;;;1.60;100.00
38812;BME280;24553;51.640;-0.752;2023-01-20T01:21:22;100574.22;;;1.28;100.00
38812;BME280;24553;51.640;-0.752;2023-01-20T01:23:47;100565.19;;;1.33;100.00
38812;BME280;24553;51.640;-0.752;2023-01-20T01:26:13;100568.56;;;1.23;100.00
38812;BME280;24553;51.640;-0.752;2023-01-20T01:28:38;100576.97;;;1.27;100.00
38812;BME280;24553;51.640;-0.752;2023-01-20T01:31:05;100574.47;;;1.25;100.00
38812;BME280;24553;51.640;-0.752;2023-01-20T01:33:32;100587.09;;;1.20;100.00
38812;BME280;24553;51.640;-0.752;2023-01-20T01:35:59;100580.03;;;1.11;100.00
38812;BME280;24553;51.640;-0.752;2023-01-20T01:38:25;100586.97;;;1.22;100.00
38812;BME280;24553;51.640;-0.752;2023-01-20T01:40:52;100591.31;;;1.33;100.00
38812;BME280;24553;51.640;-0.752;2023-01-20T01:43:29;100587.47;;;1.37;100.00
38812;BME280;24553;51.640;-0.752;2023-01-20T01:45:54;100581.44;;;1.15;100.00
38812;BME280;24553;51.640;-0.752;2023-01-20T01:48:46;100589.59;;;1.22;100.00
38812;BME280;24553;51.640;-0.752;2023-01-20T01:51:22;100593.53;;;1.37;100.00
38812;BME280;24553;51.640;-0.752;2023-01-20T01:53:53;100596.34;;;1.45;100.00
38812;BME280;24553;51.640;-0.752;2023-01-20T01:56:24;100593.78;;;1.55;100.00
38812;BME280;24553;51.640;-0.752;2023-01-20T01:58:54;100602.78;;;1.20;100.00
38812;BME280;24553;51.640;-0.752;2023-01-20T02:01:21;100612.03;;;0.92;100.00
38812;BME280;24553;51.640;-0.752;2023-01-20T02:04:04;100616.28;;;1.04;100.00
38812;BME280;24553;51.640;-0.752;2023-01-20T02:06:34;100627.41;;;0.85;100.00
38812;BME280;24553;51.640;-0.752;2023-01-20T02:09:02;100618.81;;;1.16;100.00
38812;BME280;24553;51.640;-0.752;2023-01-20T02:11:29;100623.56;;;1.22;100.00
38812;BME280;24553;51.640;-0.752;2023-01-20T02:13:55;100633.84;;;1.23;100.00
38812;BME280;24553;51.640;-0.752;2023-01-20T02:22:38;100646.28;;;1.10;100.00
38812;BME280;24553;51.640;-0.752;2023-01-20T02:33:30;100658.03;;;0.06;100.00
38812;BME280;24553;51.640;-0.752;2023-01-20T02:36:44;100659.50;;;-0.48;100.00
38812;BME280;24553;51.640;-0.752;2023-01-20T02:41:40;100679.97;;;-0.54;100.00
38812;BME280;24553;51.640;-0.752;2023-01-20T02:44:34;100685.41;;;-0.57;100.00
38812;BME280;24553;51.640;-0.752;2023-01-20T02:49:40;100690.75;;;-0.83;100.00
38812;BME280;24553;51.640;-0.752;2023-01-20T02:52:17;100700.19;;;-0.58;100.00
38812;BME280;24553;51.640;-0.752;2023-01-20T02:54:48;100703.31;;;-0.41;100.00
38812;BME280;24553;51.640;-0.752;2023-01-20T02:57:19;100707.69;;;-0.53;100.00
38812;BME280;24553;51.640;-0.752;2023-01-20T02:59:51;100702.94;;;-0.83;100.00
38812;BME280;24553;51.640;-0.752;2023-01-20T03:02:22;100700.03;;;-1.03;100.00
38812;BME280;24553;51.640;-0.752;2023-01-20T03:04:56;100710.00;;;-1.21;100.00
38812;BME280;24553;51.640;-0.752;2023-01-20T03:07:26;100712.69;;;-1.22;100.00
38812;BME280;24553;51.640;-0.752;2023-01-20T03:09:55;100716.75;;;-1.18;100.00
38812;BME280;24553;51.640;-0.752;2023-01-20T03:12:34;100721.19;;;-1.07;100.00
38812;BME280;24553;51.640;-0.752;2023-01-20T03:15:01;100719.50;;;-1.08;100.00
38812;BME280;24553;51.640;-0.752;2023-01-20T03:17:26;100728.47;;;-0.89;100.00
38812;BME280;24553;51.640;-0.752;2023-01-20T03:19:51;100713.19;;;-0.69;100.00
38812;BME280;24553;51.640;-0.752;2023-01-20T03:22:17;100724.16;;;-0.77;100.00
38812;BME280;24553;51.640;-0.752;2023-01-20T03:24:45;100720.75;;;-0.77;100.00
38812;BME280;24553;51.640;-0.752;2023-01-20T03:27:11;100718.91;;;-0.64;100.00
38812;BME280;24553;51.640;-0.752;2023-01-20T03:29:37;100716.66;;;-0.57;100.00
38812;BME280;24553;51.640;-0.752;2023-01-20T03:32:05;100720.94;;;-0.56;100.00
38812;BME280;24553;51.640;-0.752;2023-01-20T03:34:33;100718.72;;;-0.74;100.00
38812;BME280;24553;51.640;-0.752;2023-01-20T03:37:00;100721.38;;;-0.62;100.00
38812;BME280;24553;51.640;-0.752;2023-01-20T03:39:27;100723.22;;;-0.40;100.00
38812;BME280;24553;51.640;-0.752;2023-01-20T03:52:51;100737.81;;;-0.27;100.00
38812;BME280;24553;51.640;-0.752;2023-01-20T03:55:41;100747.53;;;-0.29;100.00
38812;BME280;24553;51.640;-0.752;2023-01-20T03:58:11;100743.28;;;-0.30;100.00
38812;BME280;24553;51.640;-0.752;2023-01-20T04:00:44;100745.88;;;-0.30;100.00
38812;BME280;24553;51.640;-0.752;2023-01-20T04:03:23;100746.28;;;-0.47;100.00
38812;BME280;24553;51.640;-0.752;2023-01-20T04:05:50;100750.56;;;-0.46;100.00
38812;BME280;24553;51.640;-0.752;2023-01-20T04:08:17;100751.63;;;-0.49;100.00
38812;BME280;24553;51.640;-0.752;2023-01-20T04:10:47;100760.53;;;-0.40;100.00
38812;BME280;24553;51.640;-0.752;2023-01-20T04:13:13;100748.81;;;-0.34;100.00
38812;BME280;24553;51.640;-0.752;2023-01-20T04:15:42;100749.53;;;-0.43;100.00
38812;BME280;24553;51.640;-0.752;2023-01-20T04:18:14;100755.09;;;-0.37;100.00
38812;BME280;24553;51.640;-0.752;2023-01-20T04:20:40;100760.47;;;-0.27;100.00
38812;BME280;24553;51.640;-0.752;2023-01-20T04:23:07;100757.75;;;-0.26;100.00
38812;BME280;24553;51.640;-0.752;2023-01-20T04:25:35;100766.06;;;-0.20;100.00
38812;BME280;24553;51.640;-0.752;2023-01-20T04:28:01;100762.63;;;-0.10;100.00
38812;BME280;24553;51.640;-0.752;2023-01-20T04:30:26;100763.94;;;-0.04;100.00
38812;BME280;24553;51.640;-0.752;2023-01-20T04:32:51;100760.97;;;-0.11;100.00
38812;BME280;24553;51.640;-0.752;2023-01-20T04:35:18;100756.97;;;0.64;100.00
38812;BME280;24553;51.640;-0.752;2023-01-20T04:37:44;100752.44;;;1.00;100.00
38812;BME280;24553;51.640;-0.752;2023-01-20T04:40:10;100754.78;;;1.14;100.00
38812;BME280;24553;51.640;-0.752;2023-01-20T04:42:35;100753.19;;;1.23;100.00
38812;BME280;24553;51.640;-0.752;2023-01-20T04:45:01;100753.94;;;1.14;100.00
38812;BME280;24553;51.640;-0.752;2023-01-20T04:47:30;100743.88;;;0.98;100.00
38812;BME280;24553;51.640;-0.752;2023-01-20T04:49:56;100750.28;;;1.05;100.00
38812;BME280;24553;51.640;-0.752;2023-01-20T04:52:21;100762.72;;;1.13;100.00
38812;BME280;24553;51.640;-0.752;2023-01-20T04:54:46;100763.94;;;0.97;100.00
38812;BME280;24553;51.640;-0.752;2023-01-20T04:57:11;100766.69;;;0.84;100.00
38812;BME280;24553;51.640;-0.752;2023-01-20T04:59:37;100768.59;;;0.94;100.00
38812;BME280;24553;51.640;-0.752;2023-01-20T05:02:02;100770.84;;;0.98;100.00
38812;BME280;24553;51.640;-0.752;2023-01-20T05:04:27;100780.06;;;1.14;100.00
38812;BME280;24553;51.640;-0.752;2023-01-20T05:06:53;100777.72;;;0.99;100.00
38812;BME280;24553;51.640;-0.752;2023-01-20T05:09:18;100786.31;;;0.68;100.00
38812;BME280;24553;51.640;-0.752;2023-01-20T05:11:43;100797.78;;;0.76;100.00
38812;BME280;24553;51.640;-0.752;2023-01-20T05:14:10;100802.31;;;0.85;100.00
38812;BME280;24553;51.640;-0.752;2023-01-20T05:16:36;100794.69;;;0.94;100.00
38812;BME280;24553;51.640;-0.752;2023-01-20T05:19:01;100799.59;;;0.76;100.00
38812;BME280;24553;51.640;-0.752;2023-01-20T05:21:26;100801.09;;;0.67;100.00
38812;BME280;24553;51.640;-0.752;2023-01-20T05:23:53;100811.31;;;0.81;100.00
38812;BME280;24553;51.640;-0.752;2023-01-20T05:26:19;100805.50;;;0.89;100.00
38812;BME280;24553;51.640;-0.752;2023-01-20T05:28:45;100804.25;;;1.16;100.00
38812;BME280;24553;51.640;-0.752;2023-01-20T05:31:10;100805.66;;;1.31;100.00
38812;BME280;24553;51.640;-0.752;2023-01-20T05:33:36;100813.94;;;1.36;100.00
38812;BME280;24553;51.640;-0.752;2023-01-20T05:36:08;100809.00;;;1.22;100.00
38812;BME280;24553;51.640;-0.752;2023-01-20T05:38:33;100814.25;;;1.11;100.00
38812;BME280;24553;51.640;-0.752;2023-01-20T05:41:04;100816.03;;;1.10;100.00
38812;BME280;24553;51.640;-0.752;2023-01-20T05:43:30;100821.81;;;1.25;100.00
38812;BME280;24553;51.640;-0.752;2023-01-20T05:45:56;100825.28;;;1.14;100.00
38812;BME280;24553;51.640;-0.752;2023-01-20T05:48:21;100826.00;;;1.16;100.00
38812;BME280;24553;51.640;-0.752;2023-01-20T05:50:47;100830.63;;;1.13;100.00
38812;BME280;24553;51.640;-0.752;2023-01-20T05:53:13;100830.16;;;1.07;100.00
38812;BME280;24553;51.640;-0.752;2023-01-20T05:55:39;100844.44;;;0.81;100.00
38812;BME280;24553;51.640;-0.752;2023-01-20T05:58:05;100853.44;;;0.54;100.00
38812;BME280;24553;51.640;-0.752;2023-01-20T06:00:31;100847.75;;;0.49;100.00
38812;BME280;24553;51.640;-0.752;2023-01-20T06:02:56;100850.84;;;0.54;100.00
38812;BME280;24553;51.640;-0.752;2023-01-20T06:05:22;100850.31;;;0.38;100.00
38812;BME280;24553;51.640;-0.752;2023-01-20T06:07:47;100855.53;;;0.27;100.00
38812;BME280;24553;51.640;-0.752;2023-01-20T06:10:14;100862.38;;;0.16;100.00
38812;BME280;24553;51.640;-0.752;2023-01-20T06:12:39;100862.38;;;0.16;100.00
38812;BME280;24553;51.640;-0.752;2023-01-20T06:15:05;100870.38;;;0.02;100.00
38812;BME280;24553;51.640;-0.752;2023-01-20T06:17:31;100867.91;;;-0.24;100.00
38812;BME280;24553;51.640;-0.752;2023-01-20T06:19:56;100876.41;;;-0.33;100.00
38812;BME280;24553;51.640;-0.752;2023-01-20T06:22:22;100878.75;;;-0.06;100.00
38812;BME280;24553;51.640;-0.752;2023-01-20T06:24:48;100880.53;;;0.29;100.00
38812;BME280;24553;51.640;-0.752;2023-01-20T06:27:13;100886.09;;;0.25;100.00
38812;BME280;24553;51.640;-0.752;2023-01-20T06:29:38;100886.22;;;-0.12;100.00
38812;BME280;24553;51.640;-0.752;2023-01-20T06:32:04;100874.06;;;-0.25;100.00
38812;BME280;24553;51.640;-0.752;2023-01-20T06:34:30;100880.78;;;-0.33;100.00
38812;BME280;24553;51.640;-0.752;2023-01-20T06:36:55;100886.88;;;-0.46;100.00
38812;BME280;24553;51.640;-0.752;2023-01-20T06:39:21;100884.00;;;-0.54;100.00
38812;BME280;24553;51.640;-0.752;2023-01-20T06:41:46;100887.41;;;-0.53;100.00
38812;BME280;24553;51.640;-0.752;2023-01-20T06:44:12;100887.56;;;-0.68;100.00
38812;BME280;24553;51.640;-0.752;2023-01-20T06:46:37;100894.84;;;-0.73;100.00
38812;BME280;24553;51.640;-0.752;2023-01-20T06:49:03;100898.53;;;-0.88;100.00
38812;BME280;24553;51.640;-0.752;2023-01-20T06:51:29;100902.53;;;-0.58;100.00
38812;BME280;24553;51.640;-0.752;2023-01-20T06:53:55;100913.38;;;-0.28;100.00
38812;BME280;24553;51.640;-0.752;2023-01-20T06:56:21;100917.31;;;0.02;100.00
38812;BME280;24553;51.640;-0.752;2023-01-20T06:58:47;100919.28;;;-0.13;100.00
38812;BME280;24553;51.640;-0.752;2023-01-20T07:01:14;100925.75;;;-0.18;100.00
38812;BME280;24553;51.640;-0.752;2023-01-20T07:03:41;100931.13;;;-0.09;100.00
38812;BME280;24553;51.640;-0.752;2023-01-20T07:06:36;100931.41;;;-0.25;100.00
38812;BME280;24553;51.640;-0.752;2023-01-20T07:09:06;100919.13;;;-0.59;100.00
38812;BME280;24553;51.640;-0.752;2023-01-20T07:11:33;100922.78;;;-0.62;100.00
38812;BME280;24553;51.640;-0.752;2023-01-20T07:14:02;100924.41;;;-0.48;100.00
38812;BME280;24553;51.640;-0.752;2023-01-20T07:16:28;100929.38;;;-0.45;100.00
38812;BME280;24553;51.640;-0.752;2023-01-20T07:18:53;100935.88;;;-0.51;100.00
38812;BME280;24553;51.640;-0.752;2023-01-20T07:21:20;100945.47;;;-0.51;100.00
38812;BME280;24553;51.640;-0.752;2023-01-20T07:23:46;100944.91;;;-0.43;100.00
38812;BME280;24553;51.640;-0.752;2023-01-20T07:26:14;100954.31;;;-0.17;100.00
38812;BME280;24553;51.640;-0.752;2023-01-20T07:28:40;100943.00;;;-0.05;100.00
38812;BME280;24553;51.640;-0.752;2023-01-20T07:31:08;100955.66;;;-0.48;100.00
38812;BME280;24553;51.640;-0.752;2023-01-20T07:33:34;100965.78;;;-0.56;100.00
38812;BME280;24553;51.640;-0.752;2023-01-20T07:36:00;100962.84;;;-0.15;100.00
38812;BME280;24553;51.640;-0.752;2023-01-20T07:38:26;100969.03;;;0.08;100.00
38812;BME280;24553;51.640;-0.752;2023-01-20T07:40:52;100967.56;;;0.04;100.00
38812;BME280;24553;51.640;-0.752;2023-01-20T07:43:17;100962.81;;;-0.02;100.00
38812;BME280;24553;51.640;-0.752;2023-01-20T07:45:42;100976.88;;;0.19;100.00
38812;BME280;24553;51.640;-0.752;2023-01-20T07:48:08;100985.22;;;0.25;100.00
38812;BME280;24553;51.640;-0.752;2023-01-20T07:50:34;100989.13;;;0.54;100.00
38812;BME280;24553;51.640;-0.752;2023-01-20T07:53:00;100985.34;;;0.58;100.00
38812;BME280;24553;51.640;-0.752;2023-01-20T07:55:25;100984.66;;;0.32;100.00
38812;BME280;24553;51.640;-0.752;2023-01-20T07:57:50;100984.25;;;0.26;100.00
38812;BME280;24553;51.640;-0.752;2023-01-20T08:00:17;100985.06;;;0.50;100.00
38812;BME280;24553;51.640;-0.752;2023-01-20T08:02:43;101001.16;;;0.79;100.00
38812;BME280;24553;51.640;-0.752;2023-01-20T08:05:08;101005.31;;;0.71;100.00
38812;BME280;24553;51.640;-0.752;2023-01-20T08:07:33;101009.09;;;0.67;100.00
38812;BME280;24553;51.640;-0.752;2023-01-20T08:09:59;101009.53;;;0.96;100.00
38812;BME280;24553;51.640;-0.752;2023-01-20T08:12:24;101009.53;;;1.18;100.00
38812;BME280;24553;51.640;-0.752;2023-01-20T08:14:49;101008.38;;;1.22;100.00
38812;BME280;24553;51.640;-0.752;2023-01-20T08:17:15;101012.50;;;1.02;100.00
38812;BME280;24553;51.640;-0.752;2023-01-20T08:19:40;101019.94;;;0.84;100.00
38812;BME280;24553;51.640;-0.752;2023-01-20T08:22:06;101013.69;;;1.09;100.00
38812;BME280;24553;51.640;-0.752;2023-01-20T08:24:31;101022.06;;;1.37;100.00
38812;BME280;24553;51.640;-0.752;2023-01-20T08:26:56;101020.97;;;1.62;100.00
38812;BME280;24553;51.640;-0.752;2023-01-20T08:29:23;101024.88;;;1.57;100.00
38812;BME280;24553;51.640;-0.752;2023-01-20T08:31:48;101028.47;;;1.56;100.00
38812;BME280;24553;51.640;-0.752;2023-01-20T08:34:14;101039.16;;;1.52;100.00
38812;BME280;24553;51.640;-0.752;2023-01-20T08:36:40;101036.88;;;1.37;100.00
38812;BME280;24553;51.640;-0.752;2023-01-20T08:39:08;101041.50;;;1.33;100.00
38812;BME280;24553;51.640;-0.752;2023-01-20T08:41:36;101035.69;;;1.41;100.00
38812;BME280;24553;51.640;-0.752;2023-01-20T08:44:05;101047.72;;;1.66;100.00
38812;BME280;24553;51.640;-0.752;2023-01-20T08:46:32;101043.28;;;2.00;100.00
38812;BME280;24553;51.640;-0.752;2023-01-20T08:48:57;101042.66;;;2.08;100.00
38812;BME280;24553;51.640;-0.752;2023-01-20T08:51:29;101037.53;;;2.17;100.00
38812;BME280;24553;51.640;-0.752;2023-01-20T08:53:55;101053.03;;;2.42;100.00
38812;BME280;24553;51.640;-0.752;2023-01-20T08:56:20;101048.38;;;2.45;100.00
38812;BME280;24553;51.640;-0.752;2023-01-20T08:58:46;101048.25;;;2.47;100.00
38812;BME280;24553;51.640;-0.752;2023-01-20T09:01:14;101049.34;;;2.44;100.00
38812;BME280;24553;51.640;-0.752;2023-01-20T09:03:40;101046.09;;;2.52;100.00
38812;BME280;24553;51.640;-0.752;2023-01-20T09:06:07;101049.44;;;2.54;100.00
38812;BME280;24553;51.640;-0.752;2023-01-20T09:08:33;101051.09;;;2.76;100.00
38812;BME280;24553;51.640;-0.752;2023-01-20T09:11:04;101047.03;;;2.83;100.00
38812;BME280;24553;51.640;-0.752;2023-01-20T09:13:29;101048.72;;;3.05;100.00
38812;BME280;24553;51.640;-0.752;2023-01-20T09:15:55;101044.59;;;2.91;100.00
38812;BME280;24553;51.640;-0.752;2023-01-20T09:18:20;101044.50;;;2.93;100.00
38812;BME280;24553;51.640;-0.752;2023-01-20T09:20:45;101046.84;;;2.96;100.00
38812;BME280;24553;51.640;-0.752;2023-01-20T09:23:11;101051.63;;;2.91;100.00
38812;BME280;24553;51.640;-0.752;2023-01-20T09:25:36;101045.88;;;2.97;100.00
38812;BME280;24553;51.640;-0.752;2023-01-20T09:28:01;101043.13;;;2.98;100.00
38812;BME280;24553;51.640;-0.752;2023-01-20T09:30:27;101042.13;;;3.11;100.00
38812;BME280;24553;51.640;-0.752;2023-01-20T09:32:52;101042.94;;;3.11;100.00
38812;BME280;24553;51.640;-0.752;2023-01-20T09:35:20;101046.84;;;3.17;100.00
38812;BME280;24553;51.640;-0.752;2023-01-20T09:37:45;101046.84;;;3.17;100.00
38812;BME280;24553;51.640;-0.752;2023-01-20T09:44:07;101052.84;;;3.28;100.00
38812;BME280;24553;51.640;-0.752;2023-01-20T09:55:51;101067.56;;;3.81;100.00
38812;BME280;24553;51.640;-0.752;2023-01-20T09:58:26;101082.78;;;3.87;100.00
38812;BME280;24553;51.640;-0.752;2023-01-20T10:04:03;101084.13;;;3.72;100.00
38812;BME280;24553;51.640;-0.752;2023-01-20T10:06:40;101090.19;;;3.72;100.00
38812;BME280;24553;51.640;-0.752;2023-01-20T10:11:43;101107.22;;;3.57;100.00
38812;BME280;24553;51.640;-0.752;2023-01-20T10:16:41;101097.13;;;3.83;100.00
38812;BME280;24553;51.640;-0.752;2023-01-20T10:19:16;101098.31;;;4.00;100.00
38812;BME280;24553;51.640;-0.752;2023-01-20T10:22:06;101099.94;;;4.42;100.00
38812;BME280;24553;51.640;-0.752;2023-01-20T10:24:40;101100.91;;;4.50;100.00
38812;BME280;24553;51.640;-0.752;2023-01-20T10:27:07;101109.88;;;4.67;100.00
38812;BME280;24553;51.640;-0.752;2023-01-20T10:29:38;101105.91;;;4.73;100.00
38812;BME280;24553;51.640;-0.752;2023-01-20T10:32:13;101111.69;;;4.67;100.00
38812;BME280;24553;51.640;-0.752;2023-01-20T10:34:48;101111.16;;;4.63;100.00
38812;BME280;24553;51.640;-0.752;2023-01-20T10:37:14;101119.88;;;4.73;100.00
38812;BME280;24553;51.640;-0.752;2023-01-20T10:39:45;101115.03;;;4.78;100.00
38812;BME280;24553;51.640;-0.752;2023-01-20T10:42:15;101130.78;;;4.98;100.00
38812;BME280;24553;51.640;-0.752;2023-01-20T10:44:41;101123.31;;;5.03;100.00
38812;BME280;24553;51.640;-0.752;2023-01-20T10:47:36;101115.44;;;5.13;100.00
38812;BME280;24553;51.640;-0.752;2023-01-20T10:55:52;101118.28;;;5.39;100.00
38812;BME280;24553;51.640;-0.752;2023-01-20T10:58:27;101117.47;;;5.38;100.00
38812;BME280;24553;51.640;-0.752;2023-01-20T11:00:55;101130.19;;;5.43;100.00
38812;BME280;24553;51.640;-0.752;2023-01-20T11:03:23;101122.19;;;5.25;100.00
38812;BME280;24553;51.640;-0.752;2023-01-20T11:05:50;101124.13;;;5.42;100.00
38812;BME280;24553;51.640;-0.752;2023-01-20T11:08:18;101120.09;;;5.38;100.00
38812;BME280;24553;51.640;-0.752;2023-01-20T11:10:46;101126.84;;;5.60;100.00
38812;BME280;24553;51.640;-0.752;2023-01-20T11:13:12;101118.91;;;5.70;100.00
38812;BME280;24553;51.640;-0.752;2023-01-20T11:15:42;101129.16;;;5.73;100.00
38812;BME280;24553;51.640;-0.752;2023-01-20T11:20:58;101117.31;;;5.87;100.00
38812;BME280;24553;51.640;-0.752;2023-01-20T11:23:51;101125.75;;;6.00;100.00
38812;BME280;24553;51.640;-0.752;2023-01-20T11:26:27;101128.69;;;5.97;100.00
38812;BME280;24553;51.640;-0.752;2023-01-20T11:28:56;101128.50;;;5.99;100.00
38812;BME280;24553;51.640;-0.752;2023-01-20T11:31:45;101124.94;;;6.00;100.00
38812;BME280;24553;51.640;-0.752;2023-01-20T11:34:31;101114.97;;;5.94;100.00
38812;BME280;24553;51.640;-0.752;2023-01-20T11:39:36;101121.25;;;5.73;100.00
38812;BME280;24553;51.640;-0.752;2023-01-20T11:42:17;101117.91;;;5.81;100.00
38812;BME280;24553;51.640;-0.752;2023-01-20T11:45:02;101124.34;;;5.49;100.00
38812;BME280;24553;51.640;-0.752;2023-01-20T11:47:35;101114.53;;;5.41;100.00
38812;BME280;24553;51.640;-0.752;2023-01-20T11:52:37;101122.13;;;5.64;100.00
38812;BME280;24553;51.640;-0.752;2023-01-20T11:55:08;101122.81;;;5.66;100.00
38812;BME280;24553;51.640;-0.752;2023-01-20T11:57:36;101127.97;;;5.58;100.00
38812;BME280;24553;51.640;-0.752;2023-01-20T12:00:03;101138.88;;;5.63;100.00
38812;BME280;24553;51.640;-0.752;2023-01-20T12:02:28;101139.84;;;5.62;100.00
38812;BME280;24553;51.640;-0.752;2023-01-20T12:05:12;101134.25;;;5.75;100.00
38812;BME280;24553;51.640;-0.752;2023-01-20T12:07:46;101134.91;;;5.96;100.00
38812;BME280;24553;51.640;-0.752;2023-01-20T12:10:26;101135.06;;;5.85;100.00
38812;BME280;24553;51.640;-0.752;2023-01-20T12:15:32;101143.06;;;6.03;100.00
38812;BME280;24553;51.640;-0.752;2023-01-20T12:18:01;101143.53;;;6.16;100.00
38812;BME280;24553;51.640;-0.752;2023-01-20T12:20:40;101140.47;;;6.21;100.00
38812;BME280;24553;51.640;-0.752;2023-01-20T12:23:16;101143.25;;;6.19;100.00
38812;BME280;24553;51.640;-0.752;2023-01-20T12:30:58;101131.38;;;6.15;100.00
38812;BME280;24553;51.640;-0.752;2023-01-20T12:33:29;101143.34;;;6.00;100.00
38812;BME280;24553;51.640;-0.752;2023-01-20T12:44:46;101145.00;;;6.01;100.00
38812;BME280;24553;51.640;-0.752;2023-01-20T12:52:36;101141.50;;;5.63;100.00
38812;BME280;24553;51.640;-0.752;2023-01-20T12:55:35;101147.03;;;5.60;100.00
38812;BME280;24553;51.640;-0.752;2023-01-20T13:15:26;101142.13;;;5.94;100.00
38812;BME280;24553;51.640;-0.752;2023-01-20T13:20:37;101126.19;;;6.51;100.00
38812;BME280;24553;51.640;-0.752;2023-01-20T13:23:05;101135.69;;;6.80;100.00
38812;BME280;24553;51.640;-0.752;2023-01-20T13:25:32;101127.41;;;6.92;100.00
38812;BME280;24553;51.640;-0.752;2023-01-20T13:27:58;101129.72;;;6.95;100.00
38812;BME280;24553;51.640;-0.752;2023-01-20T13:30:39;101134.88;;;6.97;100.00
38812;BME280;24553;51.640;-0.752;2023-01-20T13:33:14;101129.72;;;6.77;100.00
38812;BME280;24553;51.640;-0.752;2023-01-20T13:35:44;101135.13;;;6.58;100.00
38812;BME280;24553;51.640;-0.752;2023-01-20T13:38:18;101134.25;;;6.67;100.00
38812;BME280;24553;51.640;-0.752;2023-01-20T13:40:45;101140.19;;;6.69;100.00
38812;BME280;24553;51.640;-0.752;2023-01-20T13:48:30;101140.66;;;6.83;100.00
38812;BME280;24553;51.640;-0.752;2023-01-20T13:53:40;101144.19;;;6.73;100.00
38812;BME280;24553;51.640;-0.752;2023-01-20T13:56:26;101153.75;;;6.74;100.00
38812;BME280;24553;51.640;-0.752;2023-01-20T13:58:56;101140.41;;;6.76;100.00
38812;BME280;24553;51.640;-0.752;2023-01-20T14:01:26;101142.44;;;6.64;100.00
38812;BME280;24553;51.640;-0.752;2023-01-20T14:04:06;101148.16;;;6.60;100.00
38812;BME280;24553;51.640;-0.752;2023-01-20T14:06:32;101150.84;;;6.50;100.00
38812;BME280;24553;51.640;-0.752;2023-01-20T14:09:00;101156.72;;;6.44;100.00
38812;BME280;24553;51.640;-0.752;2023-01-20T14:11:27;101161.22;;;6.33;100.00
38812;BME280;24553;51.640;-0.752;2023-01-20T14:13:54;101162.16;;;6.15;100.00
38812;BME280;24553;51.640;-0.752;2023-01-20T14:18:48;101170.69;;;5.69;100.00
38812;BME280;24553;51.640;-0.752;2023-01-20T14:21:22;101177.38;;;5.54;100.00
38812;BME280;24553;51.640;-0.752;2023-01-20T14:23:48;101178.75;;;5.58;100.00
38812;BME280;24553;51.640;-0.752;2023-01-20T14:26:26;101188.31;;;5.59;100.00
38812;BME280;24553;51.640;-0.752;2023-01-20T14:28:59;101190.09;;;5.68;100.00
38812;BME280;24553;51.640;-0.752;2023-01-20T14:31:29;101198.28;;;5.65;100.00
38812;BME280;24553;51.640;-0.752;2023-01-20T14:36:43;101195.16;;;5.89;100.00
38812;BME280;24553;51.640;-0.752;2023-01-20T14:39:17;101210.63;;;5.07;100.00
38812;BME280;24553;51.640;-0.752;2023-01-20T14:41:46;101215.72;;;4.89;100.00
38812;BME280;24553;51.640;-0.752;2023-01-20T14:44:23;101218.75;;;4.84;100.00
38812;BME280;24553;51.640;-0.752;2023-01-20T14:46:52;101227.34;;;4.86;100.00